sensor_id;sensor_type;location;lat;lon;timestamp;temperature;humidity
25214;DHT22;13160;51.834;4.706;2023-05-16T00:00:05;9.80;99.90
25214;DHT22;13160;51.834;4.706;2023-05-16T00:02:35;9.80;99.90
25214;DHT22;13160;51.834;4.706;2023-05-16T00:05:06;9.80;99.90
25214;DHT22;13160;51.834;4.706;2023-05-16T00:07:37;9.80;99.90
25214;DHT22;13160;51.834;4.706;2023-05-16T00:10:07;9.80;99.90
25214;DHT22;13160;51.834;4.706;2023-05-16T00:12:35;9.70;99.90
25214;DHT22;13160;51.834;4.706;2023-05-16T00:15:06;9.70;99.90
25214;DHT22;13160;51.834;4.706;2023-05-16T00:17:38;9.70;99.90
25214;DHT22;13160;51.834;4.706;2023-05-16T00:20:08;9.70;99.90
25214;DHT22;13160;51.834;4.706;2023-05-16T00:22:39;9.70;99.90
25214;DHT22;13160;51.834;4.706;2023-05-16T00:25:08;9.70;99.90
25214;DHT22;13160;51.834;4.706;2023-05-16T00:27:36;9.60;99.90
25214;DHT22;13160;51.834;4.706;2023-05-16T00:30:05;9.60;99.90
25214;DHT22;13160;51.834;4.706;2023-05-16T00:32:35;9.60;99.90
25214;DHT22;13160;51.834;4.706;2023-05-16T00:35:04;9.60;99.90
25214;DHT22;13160;51.834;4.706;2023-05-16T00:37:36;9.60;99.90
25214;DHT22;13160;51.834;4.706;2023-05-16T00:40:07;9.60;99.90
25214;DHT22;13160;51.834;4.706;2023-05-16T00:42:37;9.60;99.90
25214;DHT22;13160;51.834;4.706;2023-05-16T00:45:07;9.50;99.90
25214;DHT22;13160;51.834;4.706;2023-05-16T00:47:37;9.50;99.90
25214;DHT22;13160;51.834;4.706;2023-05-16T00:50:06;9.50;99.90
25214;DHT22;13160;51.834;4.706;2023-05-16T00:52:34;9.50;99.90
25214;DHT22;13160;51.834;4.706;2023-05-16T00:55:03;9.50;99.90
25214;DHT22;13160;51.834;4.706;2023-05-16T00:57:36;9.50;99.90
25214;DHT22;13160;51.834;4.706;2023-05-16T01:00:07;9.50;99.90
25214;DHT22;13160;51.834;4.706;2023-05-16T01:02:37;9.50;99.90
25214;DHT22;13160;51.834;4.706;2023-05-16T01:05:06;9.40;99.90
25214;DHT22;13160;51.834;4.706;2023-05-16T01:07:35;9.40;99.90
25214;DHT22;13160;51.834;4.706;2023-05-16T01:10:07;9.40;99.90
25214;DHT22;13160;51.834;4.706;2023-05-16T01:12:47;9.40;99.90
25214;DHT22;13160;51.834;4.706;2023-05-16T01:15:23;9.40;99.90
25214;DHT22;13160;51.834;4.706;2023-05-16T01:18:01;9.30;99.90
25214;DHT22;13160;51.834;4.706;2023-05-16T01:20:39;9.30;99.90
25214;DHT22;13160;51.834;4.706;2023-05-16T01:23:32;9.30;99.90
25214;DHT22;13160;51.834;4.706;2023-05-16T01:26:13;9.30;99.90
25214;DHT22;13160;51.834;4.706;2023-05-16T01:28:44;9.30;99.90
25214;DHT22;13160;51.834;4.706;2023-05-16T01:31:13;9.30;99.90
25214;DHT22;13160;51.834;4.706;2023-05-16T01:33:42;9.30;99.90
25214;DHT22;13160;51.834;4.706;2023-05-16T01:36:19;9.30;99.90
25214;DHT22;13160;51.834;4.706;2023-05-16T01:39:00;9.30;99.90
25214;DHT22;13160;51.834;4.706;2023-05-16T01:41:39;9.20;99.90
25214;DHT22;13160;51.834;4.706;2023-05-16T01:44:16;9.20;99.90
25214;DHT22;13160;51.834;4.706;2023-05-16T01:46:54;9.30;99.90
25214;DHT22;13160;51.834;4.706;2023-05-16T01:49:30;9.20;99.90
25214;DHT22;13160;51.834;4.706;2023-05-16T01:52:07;9.20;99.90
25214;DHT22;13160;51.834;4.706;2023-05-16T01:54:37;9.20;99.90
25214;DHT22;13160;51.834;4.706;2023-05-16T01:57:08;9.20;99.90
25214;DHT22;13160;51.834;4.706;2023-05-16T01:59:38;9.20;99.90
25214;DHT22;13160;51.834;4.706;2023-05-16T02:02:08;9.20;99.90
25214;DHT22;13160;51.834;4.706;2023-05-16T02:04:37;9.20;99.90
25214;DHT22;13160;51.834;4.706;2023-05-16T02:07:05;9.20;99.90
25214;DHT22;13160;51.834;4.706;2023-05-16T02:09:34;9.20;99.90
25214;DHT22;13160;51.834;4.706;2023-05-16T02:12:03;9.20;99.90
25214;DHT22;13160;51.834;4.706;2023-05-16T02:14:33;9.20;99.90
25214;DHT22;13160;51.834;4.706;2023-05-16T02:17:01;9.20;99.90
25214;DHT22;13160;51.834;4.706;2023-05-16T02:19:30;9.20;99.90
25214;DHT22;13160;51.834;4.706;2023-05-16T02:21:58;9.20;99.90
25214;DHT22;13160;51.834;4.706;2023-05-16T02:24:27;9.20;99.90
25214;DHT22;13160;51.834;4.706;2023-05-16T02:26:55;9.20;99.90
25214;DHT22;13160;51.834;4.706;2023-05-16T02:29:23;9.20;99.90
25214;DHT22;13160;51.834;4.706;2023-05-16T02:31:54;9.20;99.90
25214;DHT22;13160;51.834;4.706;2023-05-16T02:34:22;9.20;99.90
25214;DHT22;13160;51.834;4.706;2023-05-16T02:36:50;9.20;99.90
25214;DHT22;13160;51.834;4.706;2023-05-16T02:39:19;9.20;99.90
25214;DHT22;13160;51.834;4.706;2023-05-16T02:41:47;9.20;99.90
25214;DHT22;13160;51.834;4.706;2023-05-16T02:44:16;9.10;99.90
25214;DHT22;13160;51.834;4.706;2023-05-16T02:46:44;9.10;99.90
25214;DHT22;13160;51.834;4.706;2023-05-16T02:49:14;9.10;99.90
25214;DHT22;13160;51.834;4.706;2023-05-16T02:51:42;9.10;99.90
25214;DHT22;13160;51.834;4.706;2023-05-16T02:54:11;9.10;99.90
25214;DHT22;13160;51.834;4.706;2023-05-16T02:56:40;9.10;99.90
25214;DHT22;13160;51.834;4.706;2023-05-16T02:59:08;9.10;99.90
25214;DHT22;13160;51.834;4.706;2023-05-16T03:01:37;9.00;99.90
25214;DHT22;13160;51.834;4.706;2023-05-16T03:04:06;9.10;99.90
25214;DHT22;13160;51.834;4.706;2023-05-16T03:06:36;9.00;99.90
25214;DHT22;13160;51.834;4.706;2023-05-16T03:09:04;9.00;99.90
25214;DHT22;13160;51.834;4.706;2023-05-16T03:11:35;9.00;99.90
25214;DHT22;13160;51.834;4.706;2023-05-16T03:14:03;9.00;99.90
25214;DHT22;13160;51.834;4.706;2023-05-16T03:16:31;9.00;99.90
25214;DHT22;13160;51.834;4.706;2023-05-16T03:19:00;9.00;99.90
25214;DHT22;13160;51.834;4.706;2023-05-16T03:21:29;8.90;99.90
25214;DHT22;13160;51.834;4.706;2023-05-16T03:23:58;9.00;99.90
25214;DHT22;13160;51.834;4.706;2023-05-16T03:26:27;9.00;99.90
25214;DHT22;13160;51.834;4.706;2023-05-16T03:28:55;9.00;99.90
25214;DHT22;13160;51.834;4.706;2023-05-16T03:31:24;9.00;99.90
25214;DHT22;13160;51.834;4.706;2023-05-16T03:33:53;9.00;99.90
25214;DHT22;13160;51.834;4.706;2023-05-16T03:36:21;9.00;99.90
25214;DHT22;13160;51.834;4.706;2023-05-16T03:38:50;9.00;99.90
25214;DHT22;13160;51.834;4.706;2023-05-16T03:41:20;9.00;99.90
25214;DHT22;13160;51.834;4.706;2023-05-16T03:43:48;9.00;99.90
25214;DHT22;13160;51.834;4.706;2023-05-16T03:46:16;9.00;99.90
25214;DHT22;13160;51.834;4.706;2023-05-16T03:48:45;9.00;99.90
25214;DHT22;13160;51.834;4.706;2023-05-16T03:51:13;9.00;99.90
25214;DHT22;13160;51.834;4.706;2023-05-16T03:53:42;9.00;99.90
25214;DHT22;13160;51.834;4.706;2023-05-16T03:56:10;9.00;99.90
25214;DHT22;13160;51.834;4.706;2023-05-16T03:58:40;9.00;99.90
25214;DHT22;13160;51.834;4.706;2023-05-16T04:01:08;9.00;99.90
25214;DHT22;13160;51.834;4.706;2023-05-16T04:03:36;9.10;99.90
25214;DHT22;13160;51.834;4.706;2023-05-16T04:06:06;9.10;99.90
25214;DHT22;13160;51.834;4.706;2023-05-16T04:08:34;9.10;99.90
25214;DHT22;13160;51.834;4.706;2023-05-16T04:11:05;9.10;99.90
25214;DHT22;13160;51.834;4.706;2023-05-16T04:13:33;9.10;99.90
25214;DHT22;13160;51.834;4.706;2023-05-16T04:16:04;9.10;99.90
25214;DHT22;13160;51.834;4.706;2023-05-16T04:18:33;9.10;99.90
25214;DHT22;13160;51.834;4.706;2023-05-16T04:21:01;9.10;99.90
25214;DHT22;13160;51.834;4.706;2023-05-16T04:23:29;9.10;99.90
25214;DHT22;13160;51.834;4.706;2023-05-16T04:25:58;9.10;99.90
25214;DHT22;13160;51.834;4.706;2023-05-16T04:28:27;9.10;99.90
25214;DHT22;13160;51.834;4.706;2023-05-16T04:30:56;9.10;99.90
25214;DHT22;13160;51.834;4.706;2023-05-16T04:33:25;9.20;99.90
25214;DHT22;13160;51.834;4.706;2023-05-16T04:35:54;9.20;99.90
25214;DHT22;13160;51.834;4.706;2023-05-16T04:38:24;9.20;99.90
25214;DHT22;13160;51.834;4.706;2023-05-16T04:40:52;9.30;99.90
25214;DHT22;13160;51.834;4.706;2023-05-16T04:43:20;9.30;99.90
25214;DHT22;13160;51.834;4.706;2023-05-16T04:45:49;9.30;99.90
25214;DHT22;13160;51.834;4.706;2023-05-16T04:48:19;9.40;99.90
25214;DHT22;13160;51.834;4.706;2023-05-16T04:50:49;9.40;99.90
25214;DHT22;13160;51.834;4.706;2023-05-16T04:53:18;9.40;99.90
25214;DHT22;13160;51.834;4.706;2023-05-16T04:55:46;9.40;99.90
25214;DHT22;13160;51.834;4.706;2023-05-16T04:58:15;9.40;99.90
25214;DHT22;13160;51.834;4.706;2023-05-16T05:00:43;9.50;99.90
25214;DHT22;13160;51.834;4.706;2023-05-16T05:03:13;9.40;99.90
25214;DHT22;13160;51.834;4.706;2023-05-16T05:05:41;9.50;99.90
25214;DHT22;13160;51.834;4.706;2023-05-16T05:08:11;9.50;99.90
25214;DHT22;13160;51.834;4.706;2023-05-16T05:10:40;9.50;99.90
25214;DHT22;13160;51.834;4.706;2023-05-16T05:13:09;9.60;99.90
25214;DHT22;13160;51.834;4.706;2023-05-16T05:15:37;9.50;99.90
25214;DHT22;13160;51.834;4.706;2023-05-16T05:18:06;9.60;99.90
25214;DHT22;13160;51.834;4.706;2023-05-16T05:20:34;9.60;99.90
25214;DHT22;13160;51.834;4.706;2023-05-16T05:23:03;9.60;99.90
25214;DHT22;13160;51.834;4.706;2023-05-16T05:25:35;9.70;99.90
25214;DHT22;13160;51.834;4.706;2023-05-16T05:28:03;9.80;99.90
25214;DHT22;13160;51.834;4.706;2023-05-16T05:30:32;9.90;99.90
25214;DHT22;13160;51.834;4.706;2023-05-16T05:33:01;9.90;99.90
25214;DHT22;13160;51.834;4.706;2023-05-16T05:35:29;10.00;99.90
25214;DHT22;13160;51.834;4.706;2023-05-16T05:38:05;10.10;99.90
25214;DHT22;13160;51.834;4.706;2023-05-16T05:40:35;10.10;99.90
25214;DHT22;13160;51.834;4.706;2023-05-16T05:43:03;10.20;99.90
25214;DHT22;13160;51.834;4.706;2023-05-16T05:45:32;10.20;99.90
25214;DHT22;13160;51.834;4.706;2023-05-16T05:48:00;10.20;99.90
25214;DHT22;13160;51.834;4.706;2023-05-16T05:50:29;10.30;99.90
25214;DHT22;13160;51.834;4.706;2023-05-16T05:52:58;10.30;99.90
25214;DHT22;13160;51.834;4.706;2023-05-16T05:55:26;10.40;99.90
25214;DHT22;13160;51.834;4.706;2023-05-16T05:57:56;10.40;99.90
25214;DHT22;13160;51.834;4.706;2023-05-16T06:00:25;10.40;99.90
25214;DHT22;13160;51.834;4.706;2023-05-16T06:02:55;10.50;99.90
25214;DHT22;13160;51.834;4.706;2023-05-16T06:05:23;10.50;99.90
25214;DHT22;13160;51.834;4.706;2023-05-16T06:07:52;10.60;99.90
25214;DHT22;13160;51.834;4.706;2023-05-16T06:10:22;10.60;99.90
25214;DHT22;13160;51.834;4.706;2023-05-16T06:12:50;10.60;99.90
25214;DHT22;13160;51.834;4.706;2023-05-16T06:15:21;10.70;99.90
25214;DHT22;13160;51.834;4.706;2023-05-16T06:17:50;10.70;99.90
25214;DHT22;13160;51.834;4.706;2023-05-16T06:20:19;10.70;99.90
25214;DHT22;13160;51.834;4.706;2023-05-16T06:22:48;10.80;99.90
25214;DHT22;13160;51.834;4.706;2023-05-16T06:25:16;10.90;99.90
25214;DHT22;13160;51.834;4.706;2023-05-16T06:27:45;10.90;99.90
25214;DHT22;13160;51.834;4.706;2023-05-16T06:30:14;11.00;99.90
25214;DHT22;13160;51.834;4.706;2023-05-16T06:32:44;11.10;99.90
25214;DHT22;13160;51.834;4.706;2023-05-16T06:35:12;11.20;99.90
25214;DHT22;13160;51.834;4.706;2023-05-16T06:37:41;11.40;99.90
25214;DHT22;13160;51.834;4.706;2023-05-16T06:40:10;11.70;99.90
25214;DHT22;13160;51.834;4.706;2023-05-16T06:42:38;12.10;99.90
25214;DHT22;13160;51.834;4.706;2023-05-16T06:45:08;12.30;99.90
25214;DHT22;13160;51.834;4.706;2023-05-16T06:47:37;12.40;99.90
25214;DHT22;13160;51.834;4.706;2023-05-16T06:50:08;12.40;99.90
25214;DHT22;13160;51.834;4.706;2023-05-16T06:52:37;12.30;99.90
25214;DHT22;13160;51.834;4.706;2023-05-16T06:55:08;12.20;99.90
25214;DHT22;13160;51.834;4.706;2023-05-16T06:57:38;12.20;99.90
25214;DHT22;13160;51.834;4.706;2023-05-16T07:00:07;12.30;99.90
25214;DHT22;13160;51.834;4.706;2023-05-16T07:02:36;12.60;99.90
25214;DHT22;13160;51.834;4.706;2023-05-16T07:05:07;13.10;99.90
25214;DHT22;13160;51.834;4.706;2023-05-16T07:07:36;13.50;99.90
25214;DHT22;13160;51.834;4.706;2023-05-16T07:10:05;13.80;99.90
25214;DHT22;13160;51.834;4.706;2023-05-16T07:12:35;14.20;99.90
25214;DHT22;13160;51.834;4.706;2023-05-16T07:15:05;14.60;99.90
25214;DHT22;13160;51.834;4.706;2023-05-16T07:17:36;14.90;99.90
25214;DHT22;13160;51.834;4.706;2023-05-16T07:20:06;15.20;99.90
25214;DHT22;13160;51.834;4.706;2023-05-16T07:22:39;15.50;99.90
25214;DHT22;13160;51.834;4.706;2023-05-16T07:25:08;15.70;99.90
25214;DHT22;13160;51.834;4.706;2023-05-16T07:27:38;15.80;99.90
25214;DHT22;13160;51.834;4.706;2023-05-16T07:30:12;15.70;99.90
25214;DHT22;13160;51.834;4.706;2023-05-16T07:32:41;15.50;99.90
25214;DHT22;13160;51.834;4.706;2023-05-16T07:35:11;15.50;99.90
25214;DHT22;13160;51.834;4.706;2023-05-16T07:37:40;15.60;99.90
25214;DHT22;13160;51.834;4.706;2023-05-16T07:40:09;15.80;99.90
25214;DHT22;13160;51.834;4.706;2023-05-16T07:42:38;16.00;99.90
25214;DHT22;13160;51.834;4.706;2023-05-16T07:45:07;16.30;99.90
25214;DHT22;13160;51.834;4.706;2023-05-16T07:47:36;16.60;99.90
25214;DHT22;13160;51.834;4.706;2023-05-16T07:50:05;16.70;99.90
25214;DHT22;13160;51.834;4.706;2023-05-16T07:52:36;16.90;99.90
25214;DHT22;13160;51.834;4.706;2023-05-16T07:55:05;16.90;99.90
25214;DHT22;13160;51.834;4.706;2023-05-16T07:57:35;16.90;99.90
25214;DHT22;13160;51.834;4.706;2023-05-16T08:00:07;16.90;99.90
25214;DHT22;13160;51.834;4.706;2023-05-16T08:02:36;16.90;99.90
25214;DHT22;13160;51.834;4.706;2023-05-16T08:05:06;16.90;99.90
25214;DHT22;13160;51.834;4.706;2023-05-16T08:07:36;17.00;99.90
25214;DHT22;13160;51.834;4.706;2023-05-16T08:10:06;17.00;99.90
25214;DHT22;13160;51.834;4.706;2023-05-16T08:12:38;17.10;99.90
25214;DHT22;13160;51.834;4.706;2023-05-16T08:15:07;17.00;99.90
25214;DHT22;13160;51.834;4.706;2023-05-16T08:17:36;16.90;99.90
25214;DHT22;13160;51.834;4.706;2023-05-16T08:20:06;16.70;99.90
25214;DHT22;13160;51.834;4.706;2023-05-16T08:22:36;16.60;99.90
25214;DHT22;13160;51.834;4.706;2023-05-16T08:25:05;16.40;99.90
25214;DHT22;13160;51.834;4.706;2023-05-16T08:27:34;16.40;99.90
25214;DHT22;13160;51.834;4.706;2023-05-16T08:30:03;16.40;99.90
25214;DHT22;13160;51.834;4.706;2023-05-16T08:32:32;16.30;99.90
25214;DHT22;13160;51.834;4.706;2023-05-16T08:35:01;16.30;99.90
25214;DHT22;13160;51.834;4.706;2023-05-16T08:37:29;16.20;99.90
25214;DHT22;13160;51.834;4.706;2023-05-16T08:40:00;16.10;99.90
25214;DHT22;13160;51.834;4.706;2023-05-16T08:42:32;16.00;99.90
25214;DHT22;13160;51.834;4.706;2023-05-16T08:45:01;15.80;99.90
25214;DHT22;13160;51.834;4.706;2023-05-16T08:47:31;15.80;99.90
25214;DHT22;13160;51.834;4.706;2023-05-16T08:50:37;15.70;99.90
25214;DHT22;13160;51.834;4.706;2023-05-16T08:53:07;15.70;99.50
25214;DHT22;13160;51.834;4.706;2023-05-16T08:55:39;15.90;99.60
25214;DHT22;13160;51.834;4.706;2023-05-16T08:58:08;15.80;99.10
25214;DHT22;13160;51.834;4.706;2023-05-16T09:00:38;15.80;99.20
25214;DHT22;13160;51.834;4.706;2023-05-16T09:03:10;15.90;99.10
25214;DHT22;13160;51.834;4.706;2023-05-16T09:05:40;15.90;98.90
25214;DHT22;13160;51.834;4.706;2023-05-16T09:08:09;15.90;98.90
25214;DHT22;13160;51.834;4.706;2023-05-16T09:10:37;15.90;98.90
25214;DHT22;13160;51.834;4.706;2023-05-16T09:13:06;15.90;98.80
25214;DHT22;13160;51.834;4.706;2023-05-16T09:15:34;16.00;98.60
25214;DHT22;13160;51.834;4.706;2023-05-16T09:18:03;16.10;98.60
25214;DHT22;13160;51.834;4.706;2023-05-16T09:20:31;16.10;98.30
25214;DHT22;13160;51.834;4.706;2023-05-16T09:23:01;16.10;98.30
25214;DHT22;13160;51.834;4.706;2023-05-16T09:25:30;16.10;97.80
25214;DHT22;13160;51.834;4.706;2023-05-16T09:28:00;16.20;97.50
25214;DHT22;13160;51.834;4.706;2023-05-16T09:30:31;16.30;97.10
25214;DHT22;13160;51.834;4.706;2023-05-16T09:33:01;16.30;96.90
25214;DHT22;13160;51.834;4.706;2023-05-16T09:35:30;16.30;97.10
25214;DHT22;13160;51.834;4.706;2023-05-16T09:38:03;16.30;96.80
25214;DHT22;13160;51.834;4.706;2023-05-16T09:40:31;16.30;96.80
25214;DHT22;13160;51.834;4.706;2023-05-16T09:43:04;16.30;96.50
25214;DHT22;13160;51.834;4.706;2023-05-16T09:45:34;16.20;96.40
25214;DHT22;13160;51.834;4.706;2023-05-16T09:48:05;16.10;96.30
25214;DHT22;13160;51.834;4.706;2023-05-16T09:50:35;16.10;96.40
25214;DHT22;13160;51.834;4.706;2023-05-16T09:53:06;16.00;95.80
25214;DHT22;13160;51.834;4.706;2023-05-16T09:55:34;16.10;95.80
25214;DHT22;13160;51.834;4.706;2023-05-16T09:58:03;16.10;95.90
25214;DHT22;13160;51.834;4.706;2023-05-16T10:00:32;16.20;95.90
25214;DHT22;13160;51.834;4.706;2023-05-16T10:03:01;16.20;95.60
25214;DHT22;13160;51.834;4.706;2023-05-16T10:05:32;16.20;95.40
25214;DHT22;13160;51.834;4.706;2023-05-16T10:08:02;16.00;95.20
25214;DHT22;13160;51.834;4.706;2023-05-16T10:10:35;16.10;95.70
25214;DHT22;13160;51.834;4.706;2023-05-16T10:13:06;16.20;95.10
25214;DHT22;13160;51.834;4.706;2023-05-16T10:15:36;16.20;94.70
25214;DHT22;13160;51.834;4.706;2023-05-16T10:18:06;16.30;94.60
25214;DHT22;13160;51.834;4.706;2023-05-16T10:20:42;16.30;94.50
25214;DHT22;13160;51.834;4.706;2023-05-16T10:23:17;16.30;94.20
25214;DHT22;13160;51.834;4.706;2023-05-16T10:25:48;16.40;94.40
25214;DHT22;13160;51.834;4.706;2023-05-16T10:28:17;16.40;94.60
25214;DHT22;13160;51.834;4.706;2023-05-16T10:30:46;16.50;94.10
25214;DHT22;13160;51.834;4.706;2023-05-16T10:33:16;16.50;93.80
25214;DHT22;13160;51.834;4.706;2023-05-16T10:35:46;16.60;93.00
25214;DHT22;13160;51.834;4.706;2023-05-16T10:38:17;16.70;92.80
25214;DHT22;13160;51.834;4.706;2023-05-16T10:40:47;16.70;92.50
25214;DHT22;13160;51.834;4.706;2023-05-16T10:43:23;16.70;92.50
25214;DHT22;13160;51.834;4.706;2023-05-16T10:45:57;16.70;92.20
25214;DHT22;13160;51.834;4.706;2023-05-16T10:48:32;16.80;92.40
25214;DHT22;13160;51.834;4.706;2023-05-16T10:51:02;16.80;91.90
25214;DHT22;13160;51.834;4.706;2023-05-16T10:53:34;16.90;91.00
25214;DHT22;13160;51.834;4.706;2023-05-16T10:56:22;17.00;90.80
25214;DHT22;13160;51.834;4.706;2023-05-16T10:58:53;17.10;90.80
25214;DHT22;13160;51.834;4.706;2023-05-16T11:01:23;17.10;91.10
25214;DHT22;13160;51.834;4.706;2023-05-16T11:04:00;17.20;90.70
25214;DHT22;13160;51.834;4.706;2023-05-16T11:06:34;17.20;90.00
25214;DHT22;13160;51.834;4.706;2023-05-16T11:09:20;17.20;90.30
25214;DHT22;13160;51.834;4.706;2023-05-16T11:11:58;17.30;90.00
25214;DHT22;13160;51.834;4.706;2023-05-16T11:14:35;17.30;90.20
25214;DHT22;13160;51.834;4.706;2023-05-16T11:17:09;17.40;90.40
25214;DHT22;13160;51.834;4.706;2023-05-16T11:19:41;17.40;90.20
25214;DHT22;13160;51.834;4.706;2023-05-16T11:22:24;17.40;89.90
25214;DHT22;13160;51.834;4.706;2023-05-16T11:24:56;17.40;88.50
25214;DHT22;13160;51.834;4.706;2023-05-16T11:27:28;17.50;89.00
25214;DHT22;13160;51.834;4.706;2023-05-16T11:30:00;17.50;88.30
25214;DHT22;13160;51.834;4.706;2023-05-16T11:32:39;17.60;87.40
25214;DHT22;13160;51.834;4.706;2023-05-16T11:35:10;17.70;86.60
25214;DHT22;13160;51.834;4.706;2023-05-16T11:37:41;17.70;85.80
25214;DHT22;13160;51.834;4.706;2023-05-16T11:40:11;17.90;85.70
25214;DHT22;13160;51.834;4.706;2023-05-16T11:42:46;18.00;85.20
25214;DHT22;13160;51.834;4.706;2023-05-16T11:45:16;18.00;84.80
25214;DHT22;13160;51.834;4.706;2023-05-16T11:47:47;17.90;84.10
25214;DHT22;13160;51.834;4.706;2023-05-16T11:50:18;17.90;83.00
25214;DHT22;13160;51.834;4.706;2023-05-16T11:52:50;17.90;83.20
25214;DHT22;13160;51.834;4.706;2023-05-16T11:55:23;17.90;84.10
25214;DHT22;13160;51.834;4.706;2023-05-16T11:58:09;17.80;83.80
25214;DHT22;13160;51.834;4.706;2023-05-16T12:00:46;17.70;84.10
25214;DHT22;13160;51.834;4.706;2023-05-16T12:03:16;17.70;85.00
25214;DHT22;13160;51.834;4.706;2023-05-16T12:05:49;17.60;84.80
25214;DHT22;13160;51.834;4.706;2023-05-16T12:08:19;17.60;83.90
25214;DHT22;13160;51.834;4.706;2023-05-16T12:10:51;17.50;84.20
25214;DHT22;13160;51.834;4.706;2023-05-16T12:13:23;17.40;84.40
25214;DHT22;13160;51.834;4.706;2023-05-16T12:15:51;17.50;84.90
25214;DHT22;13160;51.834;4.706;2023-05-16T12:18:20;17.50;85.10
25214;DHT22;13160;51.834;4.706;2023-05-16T12:20:50;17.40;85.00
25214;DHT22;13160;51.834;4.706;2023-05-16T12:23:19;17.40;85.20
25214;DHT22;13160;51.834;4.706;2023-05-16T12:25:47;17.30;84.60
25214;DHT22;13160;51.834;4.706;2023-05-16T12:28:16;17.40;84.70
25214;DHT22;13160;51.834;4.706;2023-05-16T12:30:47;17.50;84.00
25214;DHT22;13160;51.834;4.706;2023-05-16T12:33:17;17.70;83.20
25214;DHT22;13160;51.834;4.706;2023-05-16T12:35:46;17.80;82.20
25214;DHT22;13160;51.834;4.706;2023-05-16T12:38:18;17.90;81.10
25214;DHT22;13160;51.834;4.706;2023-05-16T12:40:47;18.00;80.90
25214;DHT22;13160;51.834;4.706;2023-05-16T12:43:18;18.00;80.90
25214;DHT22;13160;51.834;4.706;2023-05-16T12:45:50;18.10;81.10
25214;DHT22;13160;51.834;4.706;2023-05-16T12:48:21;18.10;80.20
25214;DHT22;13160;51.834;4.706;2023-05-16T12:50:49;18.10;80.10
25214;DHT22;13160;51.834;4.706;2023-05-16T12:53:19;18.10;79.30
25214;DHT22;13160;51.834;4.706;2023-05-16T12:55:47;18.20;79.20
25214;DHT22;13160;51.834;4.706;2023-05-16T12:58:16;18.20;79.00
25214;DHT22;13160;51.834;4.706;2023-05-16T13:00:45;18.30;79.00
25214;DHT22;13160;51.834;4.706;2023-05-16T13:03:15;18.30;79.30
25214;DHT22;13160;51.834;4.706;2023-05-16T13:05:45;18.40;79.20
25214;DHT22;13160;51.834;4.706;2023-05-16T13:08:13;18.40;79.50
25214;DHT22;13160;51.834;4.706;2023-05-16T13:10:42;18.40;78.50
25214;DHT22;13160;51.834;4.706;2023-05-16T13:13:12;18.30;77.40
25214;DHT22;13160;51.834;4.706;2023-05-16T13:16:01;18.30;78.30
25214;DHT22;13160;51.834;4.706;2023-05-16T13:18:31;18.40;77.50
25214;DHT22;13160;51.834;4.706;2023-05-16T13:21:00;18.40;76.90
25214;DHT22;13160;51.834;4.706;2023-05-16T13:23:29;18.50;75.90
25214;DHT22;13160;51.834;4.706;2023-05-16T13:25:58;18.40;75.40
25214;DHT22;13160;51.834;4.706;2023-05-16T13:28:27;18.40;75.70
25214;DHT22;13160;51.834;4.706;2023-05-16T13:30:55;18.50;75.80
25214;DHT22;13160;51.834;4.706;2023-05-16T13:33:26;18.50;75.50
25214;DHT22;13160;51.834;4.706;2023-05-16T13:35:56;18.50;75.50
25214;DHT22;13160;51.834;4.706;2023-05-16T13:38:24;18.50;74.60
25214;DHT22;13160;51.834;4.706;2023-05-16T13:40:53;18.40;74.80
25214;DHT22;13160;51.834;4.706;2023-05-16T13:43:21;18.20;74.20
25214;DHT22;13160;51.834;4.706;2023-05-16T13:45:50;18.10;74.50
25214;DHT22;13160;51.834;4.706;2023-05-16T13:48:18;18.00;74.90
25214;DHT22;13160;51.834;4.706;2023-05-16T13:50:47;18.00;75.30
25214;DHT22;13160;51.834;4.706;2023-05-16T13:53:17;17.90;75.80
25214;DHT22;13160;51.834;4.706;2023-05-16T13:55:46;17.90;75.50
25214;DHT22;13160;51.834;4.706;2023-05-16T13:58:14;17.90;76.10
25214;DHT22;13160;51.834;4.706;2023-05-16T14:00:43;17.90;76.40
25214;DHT22;13160;51.834;4.706;2023-05-16T14:03:13;17.90;76.80
25214;DHT22;13160;51.834;4.706;2023-05-16T14:05:42;18.00;77.70
25214;DHT22;13160;51.834;4.706;2023-05-16T14:08:11;18.10;77.30
25214;DHT22;13160;51.834;4.706;2023-05-16T14:10:41;18.10;76.70
25214;DHT22;13160;51.834;4.706;2023-05-16T14:13:10;18.10;76.60
25214;DHT22;13160;51.834;4.706;2023-05-16T14:15:38;18.30;76.90
25214;DHT22;13160;51.834;4.706;2023-05-16T14:18:07;18.30;76.30
25214;DHT22;13160;51.834;4.706;2023-05-16T14:20:35;18.20;76.40
25214;DHT22;13160;51.834;4.706;2023-05-16T14:23:03;18.20;76.40
25214;DHT22;13160;51.834;4.706;2023-05-16T14:25:32;18.20;76.60
25214;DHT22;13160;51.834;4.706;2023-05-16T14:28:02;18.20;76.30
25214;DHT22;13160;51.834;4.706;2023-05-16T14:30:30;18.10;76.00
25214;DHT22;13160;51.834;4.706;2023-05-16T14:32:59;18.10;76.40
25214;DHT22;13160;51.834;4.706;2023-05-16T14:35:29;18.20;76.80
25214;DHT22;13160;51.834;4.706;2023-05-16T14:37:58;18.30;76.50
25214;DHT22;13160;51.834;4.706;2023-05-16T14:40:26;18.30;75.60
25214;DHT22;13160;51.834;4.706;2023-05-16T14:42:54;18.20;75.90
25214;DHT22;13160;51.834;4.706;2023-05-16T14:45:24;18.10;75.70
25214;DHT22;13160;51.834;4.706;2023-05-16T14:47:53;18.00;75.70
25214;DHT22;13160;51.834;4.706;2023-05-16T14:50:22;17.90;76.60
25214;DHT22;13160;51.834;4.706;2023-05-16T14:52:50;17.90;76.60
25214;DHT22;13160;51.834;4.706;2023-05-16T14:55:19;17.90;77.00
25214;DHT22;13160;51.834;4.706;2023-05-16T14:57:48;17.90;76.90
25214;DHT22;13160;51.834;4.706;2023-05-16T15:00:27;17.90;77.60
25214;DHT22;13160;51.834;4.706;2023-05-16T15:02:56;17.80;77.90
25214;DHT22;13160;51.834;4.706;2023-05-16T15:05:25;17.90;77.90
25214;DHT22;13160;51.834;4.706;2023-05-16T15:07:55;17.90;77.80
25214;DHT22;13160;51.834;4.706;2023-05-16T15:10:23;17.90;77.30
25214;DHT22;13160;51.834;4.706;2023-05-16T15:12:52;17.80;76.80
25214;DHT22;13160;51.834;4.706;2023-05-16T15:15:20;17.80;77.10
25214;DHT22;13160;51.834;4.706;2023-05-16T15:17:53;17.80;77.50
25214;DHT22;13160;51.834;4.706;2023-05-16T15:20:22;17.70;77.40
25214;DHT22;13160;51.834;4.706;2023-05-16T15:22:52;17.70;77.40
25214;DHT22;13160;51.834;4.706;2023-05-16T15:25:20;17.60;77.40
25214;DHT22;13160;51.834;4.706;2023-05-16T15:27:48;17.60;77.80
25214;DHT22;13160;51.834;4.706;2023-05-16T15:30:17;17.60;78.00
25214;DHT22;13160;51.834;4.706;2023-05-16T15:32:46;17.60;77.90
25214;DHT22;13160;51.834;4.706;2023-05-16T15:35:16;17.70;77.40
25214;DHT22;13160;51.834;4.706;2023-05-16T15:37:44;17.60;77.10
25214;DHT22;13160;51.834;4.706;2023-05-16T15:40:13;17.50;77.10
25214;DHT22;13160;51.834;4.706;2023-05-16T15:42:42;17.40;77.40
25214;DHT22;13160;51.834;4.706;2023-05-16T15:45:11;17.30;78.70
25214;DHT22;13160;51.834;4.706;2023-05-16T15:47:40;17.20;78.70
25214;DHT22;13160;51.834;4.706;2023-05-16T15:50:09;17.20;79.50
25214;DHT22;13160;51.834;4.706;2023-05-16T15:52:39;17.10;80.00